»·PEaware :: N5268J KSBP-KSMX

N5268J :: KSBP-KSMX

FLIGHT INFORMATION

Flight Status: Arrived
Operator: Privately registered:
United States
More flights under this callsign
Pilot: John P. (31881)
Aircraft: BEECH AIRCRAFT BONANZA
(BE36)
More flights by this aircraft type
Origin: KSBP San Luis Co Regl
United States
Destination: KSMX Santa Maria Pub/Capt Hancock
United States
More flights between these airports :: More routes between these airports
Route:
File this flight plan on PilotEdge
Remarks:
Altitude:
(Current/Filed)
3,500ft
Speed:
(Current/Filed)
167kts
Departed: 16-Oct-20 05:23 PM
Arrived: 16-Oct-20 05:47 PM
Distance/Time
Traveled:
6877nm/0:24
Distance/Time
To Go:
Arrived

Flight Plot

Page will automatically refresh every two minutes.


Map Options




Map Legend


Flown Route
Filed Route
Departure Airport
Arrival Airport
Navaid (VOR, NDB)
Fix

Horizontal Profiles

Position Reports

Time Latitude Longitude Heading Altitude Ground
Speed
16-Oct-20 16:59 0.000408 0.013975 0 3ft 0kts
16-Oct-20 17:00 35.236056 -120.635850 30 182ft 0kts
16-Oct-20 17:01 35.236056 -120.635850 30 205ft 0kts
16-Oct-20 17:01 35.236056 -120.635850 30 205ft 0kts
16-Oct-20 17:03 35.236056 -120.635850 30 205ft 0kts
16-Oct-20 17:03 35.236056 -120.635850 30 205ft 0kts
16-Oct-20 17:04 35.236056 -120.635850 30 205ft 0kts
16-Oct-20 17:05 35.236056 -120.635850 30 205ft 0kts
16-Oct-20 17:06 35.236056 -120.635850 30 205ft 0kts
16-Oct-20 17:07 35.236056 -120.635850 30 205ft 0kts
16-Oct-20 17:08 35.236056 -120.635850 30 205ft 0kts
16-Oct-20 17:09 35.236056 -120.635850 30 205ft 0kts
16-Oct-20 17:10 35.236056 -120.635850 30 205ft 0kts
16-Oct-20 17:11 35.236056 -120.635850 30 205ft 0kts
16-Oct-20 17:12 35.236056 -120.635850 30 205ft 0kts
16-Oct-20 17:13 35.236056 -120.635850 30 205ft 0kts
16-Oct-20 17:14 35.236056 -120.635850 30 205ft 0kts
16-Oct-20 17:15 35.236056 -120.635850 30 205ft 0kts
16-Oct-20 17:16 35.236056 -120.635850 30 205ft 0kts
16-Oct-20 17:17 35.236156 -120.636380 201 204ft 14kts
16-Oct-20 17:18 35.233086 -120.632441 220 218ft 0kts
16-Oct-20 17:19 35.233086 -120.632441 220 218ft 0kts
16-Oct-20 17:20 35.233086 -120.632441 220 218ft 0kts
16-Oct-20 17:21 35.233086 -120.632441 220 218ft 0kts
16-Oct-20 17:22 35.236129 -120.638899 304 199ft 95kts
16-Oct-20 17:23 35.257245 -120.665297 352 1264ft 107kts
16-Oct-20 17:24 35.235957 -120.664124 116 2499ft 100kts
16-Oct-20 17:25 35.215760 -120.638293 155 3389ft 132kts
16-Oct-20 17:26 35.174526 -120.623924 164 3493ft 166kts
16-Oct-20 17:27 35.129173 -120.609880 164 3527ft 169kts
16-Oct-20 17:28 35.084226 -120.595854 164 3527ft 169kts
16-Oct-20 17:29 35.039141 -120.580226 155 3520ft 163kts
16-Oct-20 17:30 35.038341 -120.579806 155 3520ft 162kts
16-Oct-20 17:31 35.012332 -120.563801 151 3525ft 154kts
16-Oct-20 17:32 34.988231 -120.579762 310 3524ft 145kts
16-Oct-20 17:33 35.021631 -120.606043 329 3518ft 142kts
16-Oct-20 17:34 35.055331 -120.631228 329 3518ft 141kts
16-Oct-20 17:35 35.089633 -120.648036 39 3523ft 135kts
16-Oct-20 17:36 35.079792 -120.609517 141 3519ft 136kts
16-Oct-20 17:37 35.046719 -120.585089 151 3252ft 153kts
16-Oct-20 17:38 35.006062 -120.559694 151 2238ft 169kts
16-Oct-20 17:39 34.963983 -120.538118 113 1545ft 157kts
16-Oct-20 17:40 34.952683 -120.489749 110 1521ft 140kts
16-Oct-20 17:41 34.934301 -120.449028 123 1523ft 136kts
16-Oct-20 17:42 34.906536 -120.417565 136 1522ft 137kts
16-Oct-20 17:43 34.875007 -120.390642 194 1718ft 130kts
16-Oct-20 17:44 34.875806 -120.426652 321 838ft 105kts
16-Oct-20 17:45 34.894618 -120.448019 322 258ft 68kts
16-Oct-20 17:46 34.897876 -120.450277 359 248ft 0kts
16-Oct-20 17:47 34.897690 -120.449256 136 250ft 6kts
16-Oct-20 17:48 34.897464 -120.447319 19 253ft 0kts
16-Oct-20 17:49 34.897464 -120.447319 19 253ft 0kts
16-Oct-20 17:50 0.000408 0.013975 0 3ft 0kts
16-Oct-20 17:51 0.000408 0.013975 0 3ft 0kts
16-Oct-20 17:52 0.000408 0.013975 0 3ft 0kts
16-Oct-20 17:53 0.000408 0.013975 0 3ft 0kts
16-Oct-20 17:54 0.000408 0.013975 0 3ft 0kts
16-Oct-20 17:55 0.000408 0.013975 0 3ft 0kts
16-Oct-20 17:56 0.000408 0.013975 0 3ft 0kts
16-Oct-20 17:57 0.000408 0.013975 0 3ft 0kts
16-Oct-20 17:58 0.000408 0.013975 0 3ft 0kts
16-Oct-20 17:59 0.000408 0.013975 0 3ft 0kts
16-Oct-20 18:00 0.000408 0.013975 0 3ft 0kts
16-Oct-20 18:01 0.000408 0.013975 0 3ft 0kts

Navigation Log

Ident Type
Flight plan parsing failed, navigation log unavailable